Main page
METAR-TAF:

Airports :

London, England

London City Airport

latitude: 51-30N, longitude: 000-03E, elevation: 5 m

Current weather observation

The report was made 20 minutes ago, at 16:50 UTC
Wind 11 kt from the North/Northwest, varying between Northwest and North
Temperature 18°C
Humidity 68%
Pressure 1012 hPa
Visibility 10 km or more
Scattered clouds at a height of 2500 ft

METAR: EGLC 291650Z 34011KT 310V010 9999 SCT025 18/12 Q1012

Time: 18:10 (17:10 UTC)

Forecast

The report was made 3 hours and 5 minutes ago, at 14:05 UTC
Forecast valid from 29 at 15 UTC to 29 at 21 UTC
Wind 10 kt from the North/Northwest
Visibility 10 km or more
Scattered clouds at a height of 2000 ft

TAF: EGLC 291405Z 2915/2921 34010KT 9999 SCT020

METAR-TAF

Weather observations and forecasts of more than 4000 airports (METAR and TAF reports).

The available stations are represented by yellow and red dots on the map.

Hover mouse over dot to see the name of the station.

Then click to see weather observations and forecasts.

To change the map : click on the green buttons with a black cross to zoom in, on the green button with a dash to zoom out, or on the green arrows for adjacent maps.


METAR-TAF: